Tiempo atmosférico en la estación meteorológica de Tacoronte, Santa Cruz de Tenerife (310 m.)



Fecha
DESCASC
Temp. máxima en grados centígrados (hora)
DESCASC
Temp. mínima en grados centígrados (hora)
DESCASC
Temp. media en grados centígrados
DESCASC
Racha de viento máxima en m/sg (hora)
DESCASC
Velocidad máxima media en intervalos de 10 minutos(hora)
DESCASC
Precipitaciones diarias en mm
DESCASC
Precipitaciones de 00:00 a 06:00 en mm
DESCASC
Precipitaciones de 06:00 a 12:00 en mm
DESCASC
Precipitaciones de 12:00 a 18:00 en mm
DESCASC
Precipitaciones de 18:00 a 24:00 en mm
DESCASC
15-08-2019 25 (13:40) 17.7 (07:20) 21.4 8.06 (14:00) 4.72 (13:30) 0 0 0 0 0
14-08-2019 24.5 (14:30) 17.9 (00:00) 21.2 9.72 (17:50) 4.44 (17:00) 0 0 0 0 0
13-08-2019 24.6 (16:50) 18.6 (00:00) 21.6 8.61 (17:50) 5.56 (17:50) 0 0 0 0 0
12-08-2019 24.5 (15:00) 19.2 (00:00) 21.9 8.89 (16:00) 5.83 (13:10) 0 0 0 0 0
11-08-2019 25.5 (13:40) 20 (00:00) 22.8 11.67 (16:40) 7.5 (16:00) 0 0 0 0 0
10-08-2019 26.8 (14:30) 19.4 (00:00) 23.1 9.17 (12:10) 5.83 (12:00) 0 0 0 0 0
09-08-2019 26.3 (13:50) 17.7 (00:00) 22 7.78 (12:50) 4.44 (13:40) 0 0 0 0 0
08-08-2019 26.3 (15:40) 17 (00:00) 21.6 6.94 (15:00) 4.44 (15:30) 0 0 0 0 0
07-08-2019 25.7 (14:40) 18.4 (00:00) 22.1 8.33 (18:50) 5.28 (14:10) 0 0 0 0 0
06-08-2019 25.4 (18:10) 18.9 (00:00) 22.1 8.06 (19:40) 4.44 (19:50) 0 0 0 0 0
05-08-2019 25.3 (13:40) 19.3 (00:00) 22.3 7.22 (14:20) 4.17 (16:10) 0 0 0 0 0
04-08-2019 24.7 (13:20) 17.9 (00:00) 21.3 10 (13:10) 4.44 (19:30) 0 0 0 0 0
03-08-2019 23.6 (17:20) 18.7 (00:00) 21.2 6.94 (18:00) 4.17 (15:20) 0 0 0 0 0
02-08-2019 24.1 (17:20) 19 (00:00) 21.6 8.33 (15:30) 4.44 (13:20) 0 0 0 0 0
01-08-2019 24.5 (16:50) 18.3 (00:00) 21.4 8.06 (16:20) 4.44 (19:10) 0 0 0 0 0
31-07-2019 22.9 (16:10) 17.9 (00:00) 20.4 8.33 (14:50) 4.72 (15:10) 0 0 0 0 0
30-07-2019 22.2 (14:30) 18 (00:00) 20.1 8.33 (08:20) 5.83 (11:10) 0 0 0 0 0
29-07-2019 24.4 (18:00) 19.2 (00:00) 21.8 7.5 (15:00) 3.89 (16:40) 0 0 0 0 0
28-07-2019 24.6 (18:20) 18.7 (00:00) 21.7 7.22 (17:20) 5 (17:20) 0 0 0 0 0
27-07-2019 23.1 (17:20) 18.6 (00:00) 20.9 8.33 (16:20) 4.72 (17:00) 0 0 0 0 0
26-07-2019 24.9 (16:10) 18.6 (00:00) 21.8 10.28 (16:20) 6.11 (16:00) 0 0 0 0 0
25-07-2019 25.5 (17:00) 18 (00:00) 21.8 9.17 (14:50) 6.39 (12:10) 0 0 0 0 0
24-07-2019 25.5 (15:10) 17.3 (00:00) 21.4 8.89 (12:20) 5.56 (12:40) 0 0 0 0 0
23-07-2019 24.2 (14:50) 18.4 (00:00) 21.3 8.61 (13:20) 5.28 (13:10) 0 0 0 0 0
22-07-2019 24.4 (15:40) 18.6 (00:00) 21.5 9.17 (17:30) 5.28 (17:30) 0 0 0 0 0
21-07-2019 23.7 (13:30) 19 (00:00) 21.4 9.17 (14:50) 5.56 (11:10) 0 0 0 0 0
20-07-2019 24.2 (18:50) 17.6 (00:00) 20.9 7.22 (23:40) 4.44 (23:40) 0 0 0 0 0
19-07-2019 23 (12:30) 18.3 (00:00) 20.6 6.39 (18:10) 3.61 (18:10) 0 0 0 0 0

Gráficas

Temp. máximas Temp. mínimas Temp. medias Precipitaciones Rachas de viento máximas Velocidades máximas media en intervalos de 10 minutos

Datos horarios

Fecha y hora oficial Temperatura (ºC) Velocidad del viento (km/h) Dirección del viento Racha (km/h) Dirección de racha Precipitación (mm) Presión (hPa) Tendencia (hPa) Humedad (%)
2019-08-17 23:00:00 21.1 3 Sudoeste 8 Sudeste 0 -- -- 94
2019-08-17 22:00:00 21.7 5 Oeste 11 Noroeste 0 -- -- 90
2019-08-17 21:00:00 22.4 4 Oeste 13 Nordeste 0 -- -- 86
2019-08-17 20:00:00 24.8 6 Nordeste 18 Nordeste 0 -- -- 75
2019-08-17 19:00:00 26.5 10 Nordeste 18 Nordeste 0 -- -- 68
2019-08-17 18:00:00 27.9 5 Noroeste 21 Nordeste 0 -- -- 64
2019-08-17 17:00:00 27.5 14 Nordeste 24 Nordeste 0 -- -- 65
2019-08-17 16:00:00 27.8 10 Nordeste 27 Nordeste 0 -- -- 67
2019-08-17 15:00:00 27 13 Nordeste 22 Norte 0 -- -- 69
2019-08-17 14:00:00 26.2 10 Noroeste 18 Norte 0 -- -- 72
2019-08-17 13:00:00 25.1 7 Oeste 19 Noroeste 0 -- -- 75
2019-08-17 12:00:00 24.6 8 Oeste 14 Oeste 0 -- -- 76
2019-08-17 11:00:00 24.1 5 Oeste 9 Oeste 0 -- -- 79
2019-08-17 10:00:00 22.2 4 Noroeste 6 Noroeste 0 -- -- 89
2019-08-17 09:00:00 21 3 Oeste 5 Sur 0 -- -- 94
2019-08-17 08:00:00 19.3 4 Sudoeste 8 Sudoeste 0 -- -- 97
2019-08-17 07:00:00 19.4 4 Sudoeste 10 Oeste 0 -- -- 96
2019-08-17 06:00:00 19.4 3 Sudoeste 9 Oeste 0 -- -- 97
2019-08-17 05:00:00 19.2 3 Sudoeste 7 Sudeste 0 -- -- 97
2019-08-17 04:00:00 19.6 4 Sur 6 Sur 0 -- -- 95
2019-08-17 03:00:00 19.4 0 Calma 4 Sur 0 -- -- 95
2019-08-17 02:00:00 19.7 2 Sur 7 Sur 0 -- -- 94
2019-08-17 01:00:00 19.8 3 Sur 6 Sur 0 -- -- 92
2019-08-17 00:00:00 20.3 2 Sur 6 Sur 0 -- -- 92
2019-08-16 23:00:00 20.5 0 Calma 17 Nordeste 0 -- -- 91
2019-08-16 22:00:00 21.1 11 Nordeste 18 Nordeste 0 -- -- 91
2019-08-16 21:00:00 21.3 12 Nordeste 20 Nordeste 0 -- -- 90
2019-08-16 20:00:00 22 12 Nordeste 21 Este 0 -- -- 89
2019-08-16 19:00:00 22.5 13 Nordeste 26 Nordeste 0 -- -- 86
2019-08-16 18:00:00 23.8 14 Nordeste 23 Nordeste 0 -- -- 80
2019-08-16 17:00:00 24.2 14 Nordeste 24 Nordeste 0 -- -- 79
2019-08-16 16:00:00 25.8 15 Nordeste 23 Nordeste 0 -- -- 72
2019-08-16 15:00:00 26 14 Nordeste 22 Nordeste 0 -- -- 73
2019-08-16 14:00:00 26.5 14 Nordeste 26 Nordeste 0 -- -- 69
2019-08-16 13:00:00 25.4 16 Nordeste 26 Nordeste 0 -- -- 72
2019-08-16 12:00:00 24.2 16 Nordeste 27 Nordeste 0 -- -- 75
2019-08-16 11:00:00 23.8 14 Nordeste 21 Nordeste 0 -- -- 75
2019-08-16 10:00:00 22.5 8 Nordeste 13 Norte 0 -- -- 80
2019-08-16 09:00:00 21 2 Noroeste 13 Sudoeste 0 -- -- 86
2019-08-16 08:00:00 19.4 8 Este 20 Este 0 -- -- 93
2019-08-16 07:00:00 19.7 13 Este 20 Nordeste 0 -- -- 94
2019-08-16 06:00:00 19.7 12 Nordeste 20 Este 0 -- -- 94
2019-08-16 05:00:00 19.8 11 Este 19 Este 0 -- -- 94
2019-08-16 04:00:00 19.8 10 Nordeste 17 Este 0 -- -- 94
2019-08-16 03:00:00 19.7 9 Nordeste 16 Este 0 -- -- 94
2019-08-16 02:00:00 19.7 6 Este 15 Nordeste 0 -- -- 93
2019-08-16 01:00:00 19.7 8 Este 18 Nordeste 0 -- -- 93
2019-08-16 00:00:00 20.2 9 Nordeste 20 Este 0 -- -- 92
2019-08-15 23:00:00 20.5 13 Nordeste 22 Nordeste 0 -- -- 91
2019-08-15 22:00:00 20.8 12 Este 19 Nordeste 0 -- -- 89
2019-08-15 21:00:00 21 10 Nordeste 18 Nordeste 0 -- -- 87
2019-08-15 20:00:00 21.5 9 Nordeste 16 Norte 0 -- -- 83
2019-08-15 19:00:00 21.8 12 Nordeste 18 Nordeste 0 -- -- 81
2019-08-15 18:00:00 22.4 13 Nordeste 21 Nordeste 0 -- -- 79
2019-08-15 17:00:00 23.2 11 Nordeste 23 Nordeste 0 -- -- 74
2019-08-15 16:00:00 24.2 12 Nordeste 29 Nordeste 0 -- -- 70
2019-08-15 15:00:00 24.5 15 Nordeste 27 Nordeste 0 -- -- 69
2019-08-15 14:00:00 24.7 15 Nordeste 29 Nordeste 0 -- -- 68
2019-08-15 13:00:00 24.5 15 Nordeste 26 Nordeste 0 -- -- 67
2019-08-15 12:00:00 23.4 14 Nordeste 22 Nordeste 0 -- -- 70
2019-08-15 11:00:00 22.6 14 Nordeste 21 Nordeste 0 -- -- 73
2019-08-15 10:00:00 21.8 9 Nordeste 15 Nordeste 0 -- -- 77
2019-08-15 09:00:00 20.3 7 Este 14 Este 0 -- -- 83
2019-08-15 08:00:00 18.1 9 Sudeste 13 Sudeste 0 -- -- 89
2019-08-15 07:00:00 17.9 10 Sudeste 14 Este 0 -- -- 88
2019-08-15 06:00:00 18.1 7 Sudeste 12 Sudeste 0 -- -- 86
2019-08-15 05:00:00 18.3 8 Este 9 Este 0 -- -- 87
2019-08-15 04:00:00 18.8 6 Este 10 Este 0 -- -- 85
2019-08-15 03:00:00 19.2 4 Este 8 Nordeste 0 -- -- 85
2019-08-15 02:00:00 19.2 4 Este 10 Este 0 -- -- 84
2019-08-15 01:00:00 19.2 5 Este 13 Este 0 -- -- 86
2019-08-15 00:00:00 19 7 Este 9 Este 0 -- -- 87
2019-08-14 23:00:00 19.8 5 Nordeste 10 Nordeste 0 -- -- 85
2019-08-14 22:00:00 19.9 5 Este 13 Nordeste 0 -- -- 85
2019-08-14 21:00:00 20.1 8 Nordeste 18 Nordeste 0 -- -- 82
2019-08-14 20:00:00 22.5 11 Nordeste 25 Nordeste 0 -- -- 70
2019-08-14 19:00:00 24 12 Nordeste 26 Este 0 -- -- 67
2019-08-14 18:00:00 23.8 12 Nordeste 35 Nordeste 0 -- -- 68
2019-08-14 17:00:00 23.9 16 Nordeste 25 Nordeste 0 -- -- 66
2019-08-14 16:00:00 23.7 13 Nordeste 24 Norte 0 -- -- 68
2019-08-14 15:00:00 22.8 15 Norte 24 Norte 0 -- -- 68
2019-08-14 14:00:00 23.2 12 Norte 24 Norte 0 -- -- 69
2019-08-14 13:00:00 23.3 13 Nordeste 23 Este 0 -- -- 68
2019-08-14 12:00:00 22 11 Nordeste 22 Este 0 -- -- 72
2019-08-14 11:00:00 21.6 13 Nordeste 20 Nordeste 0 -- -- 70
2019-08-14 10:00:00 20.7 12 Nordeste 19 Nordeste 0 -- -- 77
2019-08-14 09:00:00 19.9 7 Este 13 Este 0 -- -- 81
2019-08-14 08:00:00 18 10 Sudeste 13 Este 0 -- -- 88
2019-08-14 07:00:00 18.4 6 Sudeste 12 Sudeste 0 -- -- 86
2019-08-14 06:00:00 18.5 6 Este 13 Este 0 -- -- 85
2019-08-14 05:00:00 18 9 Este 14 Este 0 -- -- 86
2019-08-14 04:00:00 18.3 7 Sudeste 10 Este 0 -- -- 84
2019-08-14 03:00:00 18.3 8 Este 12 Este 0 -- -- 84
2019-08-14 02:00:00 18.7 8 Este 11 Este 0 -- -- 83
2019-08-14 01:00:00 18.4 9 Sudeste 13 Este 0 -- -- 83
2019-08-14 00:00:00 19.1 6 Este 12 Nordeste 0 -- -- 80
2019-08-13 23:00:00 19.3 8 Nordeste 14 Nordeste 0 -- -- 81
2019-08-13 22:00:00 19.7 5 Nordeste 14 Nordeste 0 -- -- 81
2019-08-13 21:00:00 20.1 10 Nordeste 19 Nordeste 0 -- -- 77
2019-08-13 20:00:00 22.5 10 Nordeste 26 Norte 0 -- -- 69
2019-08-13 19:00:00 23.1 18 Nordeste 31 Nordeste 0 -- -- 65
2019-08-13 18:00:00 23.9 17 Nordeste 31 Nordeste 0 -- -- 62
2019-08-13 17:00:00 23.7 18 Nordeste 27 Nordeste 0 -- -- 64
2019-08-13 16:00:00 24 18 Nordeste 31 Norte 0 -- -- 63
2019-08-13 15:00:00 23.3 15 Nordeste 27 Norte 0 -- -- 67
2019-08-13 14:00:00 23.2 11 Norte 27 Nordeste 0 -- -- 67
2019-08-13 13:00:00 23.2 15 Nordeste 25 Nordeste 0 -- -- 72
2019-08-13 12:00:00 22.3 13 Nordeste 23 Nordeste 0 -- -- 69
2019-08-13 11:00:00 21.2 12 Nordeste 19 Nordeste 0 -- -- 76
2019-08-13 10:00:00 20.7 9 Nordeste 15 Nordeste 0 -- -- 79
2019-08-13 09:00:00 19.8 5 Este 12 Este 0 -- -- 83
2019-08-13 08:00:00 18.6 6 Este 13 Este 0 -- -- 87
2019-08-13 07:00:00 18.9 6 Sudeste 13 Este 0 -- -- 87
2019-08-13 06:00:00 18.7 5 Sudeste 12 Este 0 -- -- 87
2019-08-13 05:00:00 19.1 5 Este 9 Este 0 -- -- 87
2019-08-13 04:00:00 18.9 5 Sudeste 10 Sudeste 0 -- -- 88
2019-08-13 03:00:00 19 8 Este 13 Nordeste 0 -- -- 89
2019-08-13 02:00:00 19.2 5 Este 10 Este 0 -- -- 88
2019-08-13 01:00:00 19.3 5 Sudeste 11 Este 0 -- -- 87
2019-08-13 00:00:00 19.4 4 Este 12 Nordeste 0 -- -- 86
2019-08-12 23:00:00 19.7 6 Este 12 Este 0 -- -- 85
2019-08-12 22:00:00 19.9 6 Nordeste 13 Nordeste 0 -- -- 84
2019-08-12 21:00:00 20.4 6 Nordeste 18 Nordeste 0 -- -- 81
2019-08-12 20:00:00 22.6 9 Nordeste 20 Nordeste 0 -- -- 72
2019-08-12 19:00:00 22.7 12 Este 25 Este 0 -- -- 69
2019-08-12 18:00:00 23.1 16 Nordeste 27 Norte 0 -- -- 68
2019-08-12 17:00:00 23.5 17 Nordeste 32 Nordeste 0 -- -- 65
2019-08-12 16:00:00 23.7 16 Nordeste 32 Nordeste 0 -- -- 64
2019-08-12 15:00:00 24.5 18 Nordeste 32 Nordeste 0 -- -- 65
2019-08-12 14:00:00 23.6 17 Nordeste 31 Nordeste 0 -- -- 70
2019-08-12 13:00:00 23.2 16 Nordeste 31 Nordeste 0 -- -- 69
2019-08-12 12:00:00 22.8 14 Nordeste 29 Nordeste 0 -- -- 74
2019-08-12 11:00:00 22.1 17 Nordeste 24 Nordeste 0 -- -- 79
2019-08-12 10:00:00 20.7 15 Nordeste 24 Nordeste 0 -- -- 85
2019-08-12 09:00:00 20.6 10 Este 18 Este 0 -- -- 86
2019-08-12 08:00:00 19.5 9 Este 15 Este 0 -- -- 90
2019-08-12 07:00:00 19.4 8 Este 19 Este 0 -- -- 90
2019-08-12 06:00:00 19.5 13 Este 24 Nordeste 0 -- -- 90
2019-08-12 05:00:00 19.5 12 Este 19 Nordeste 0 -- -- 91
2019-08-12 04:00:00 19.5 11 Este 20 Este 0 -- -- 89
2019-08-12 03:00:00 19.7 10 Este 23 Este 0 -- -- 90
2019-08-12 02:00:00 19.9 11 Este 18 Nordeste 0 -- -- 89
2019-08-12 01:00:00 20 8 Este 18 Nordeste 0 -- -- 87
2019-08-12 00:00:00 20 8 Nordeste 18 Este 0 -- -- 86
2019-08-11 23:00:00 20.3 8 Nordeste 16 Nordeste 0 -- -- 85
2019-08-11 22:00:00 20.4 10 Este 22 Nordeste 0 -- -- 84
2019-08-11 21:00:00 20.8 10 Nordeste 22 Nordeste 0 -- -- 82
2019-08-11 20:00:00 22.3 13 Nordeste 27 Nordeste 0 -- -- 74
2019-08-11 19:00:00 23.2 17 Nordeste 33 Nordeste 0 -- -- 74
2019-08-11 18:00:00 24.1 14 Nordeste 32 Este 0 -- -- 66
2019-08-11 17:00:00 24.4 21 Nordeste 42 Nordeste 0 -- -- 68
2019-08-11 16:00:00 24.7 27 Nordeste 39 Nordeste 0 -- -- 67
2019-08-11 15:00:00 24.5 22 Nordeste 37 Nordeste 0 -- -- 71
2019-08-11 14:00:00 24.7 21 Nordeste 30 Nordeste 0 -- -- 71
2019-08-11 13:00:00 23.6 20 Nordeste 33 Este 0 -- -- 80
2019-08-11 12:00:00 23.3 20 Nordeste 31 Nordeste 0 -- -- 81
2019-08-11 11:00:00 21.9 15 Este 29 Nordeste 0 -- -- 96
2019-08-11 10:00:00 20.9 18 Este 28 Nordeste 0 -- -- 97
2019-08-11 09:00:00 20.9 10 Nordeste 16 Nordeste 0 -- -- 96
2019-08-11 08:00:00 21.4 2 Nordeste 9 Nordeste 0 -- -- 94
2019-08-11 07:00:00 21.4 3 Nordeste 16 Este 0 -- -- 91
2019-08-11 06:00:00 21 9 Este 14 Nordeste 0 -- -- 94
2019-08-11 05:00:00 21.1 9 Este 19 Este 0 -- -- 94
2019-08-11 04:00:00 21.3 7 Este 21 Este 0 -- -- 91
2019-08-11 03:00:00 21.8 10 Este 22 Este 0 -- -- 85
2019-08-11 02:00:00 21.7 8 Nordeste 19 Este 0 -- -- 87
2019-08-11 01:00:00 21.4 11 Este 19 Este 0 -- -- 90
2019-08-11 00:00:00 21.5 12 Nordeste 20 Nordeste 0 -- -- 90
2019-08-10 23:00:00 21.6 11 Este 24 Este 0 -- -- 87
2019-08-10 22:00:00 21.6 17 Nordeste 28 Nordeste 0 -- -- 84
2019-08-10 21:00:00 22.6 8 Este 20 Nordeste 0 -- -- 76
2019-08-10 20:00:00 24 13 Nordeste 28 Nordeste 0 -- -- 75
2019-08-10 19:00:00 25.4 14 Nordeste 27 Nordeste 0 -- -- 71
2019-08-10 18:00:00 25.5 19 Nordeste 28 Nordeste 0 -- -- 71
2019-08-10 17:00:00 25.7 19 Nordeste 30 Nordeste 0 -- -- 70
2019-08-10 16:00:00 25.8 17 Nordeste 27 Nordeste 0 -- -- 69
2019-08-10 15:00:00 26.3 16 Nordeste 27 Nordeste 0 -- -- 67
2019-08-10 14:00:00 26 16 Nordeste 26 Nordeste 0 -- -- 67
2019-08-10 13:00:00 26 17 Nordeste 33 Nordeste 0 -- -- 67
2019-08-10 12:00:00 25.2 21 Nordeste 32 Nordeste 0 -- -- 71
2019-08-10 11:00:00 24.6 18 Nordeste 26 Nordeste 0 -- -- 74
2019-08-10 10:00:00 23.1 17 Nordeste 23 Nordeste 0 -- -- 79
2019-08-10 09:00:00 21.1 12 Este 19 Este 0 -- -- 87
2019-08-10 08:00:00 20.3 9 Este 17 Este 0 -- -- 89
2019-08-10 07:00:00 20.7 10 Este 21 Este 0 -- -- 88
2019-08-10 06:00:00 20.4 9 Este 18 Este 0 -- -- 91
2019-08-10 05:00:00 20.6 8 Este 16 Este 0 -- -- 90
2019-08-10 04:00:00 20.4 10 Este 17 Nordeste 0 -- -- 89
2019-08-10 03:00:00 20 9 Este 15 Este 0 -- -- 89
2019-08-10 02:00:00 19.9 9 Este 18 Este 0 -- -- 87
2019-08-10 01:00:00 20.3 10 Este 15 Este 0 -- -- 84
2019-08-10 00:00:00 20.2 7 Este 11 Nordeste 0 -- -- 84
2019-08-09 23:00:00 20 5 Este 8 Este 0 -- -- 83
2019-08-09 22:00:00 20.7 4 Este 16 Nordeste 0 -- -- 90
2019-08-09 21:00:00 21 13 Nordeste 21 Nordeste 0 -- -- 88
2019-08-09 20:00:00 23.6 13 Nordeste 19 Nordeste 0 -- -- 74
2019-08-09 19:00:00 25.2 12 Nordeste 19 Nordeste 0 -- -- 70
2019-08-09 18:00:00 25.9 9 Norte 26 Nordeste 0 -- -- 67
2019-08-09 17:00:00 25.4 13 Nordeste 24 Nordeste 0 -- -- 68
2019-08-09 16:00:00 25.2 12 Norte 23 Norte 0 -- -- 72
2019-08-09 15:00:00 24.3 13 Norte 22 Norte 0 -- -- 75
2019-08-09 14:00:00 26 13 Nordeste 25 Nordeste 0 -- -- 68
2019-08-09 13:00:00 25.6 15 Nordeste 28 Norte 0 -- -- 69
2019-08-09 12:00:00 25 13 Nordeste 23 Nordeste 0 -- -- 70
2019-08-09 11:00:00 23.8 12 Nordeste 19 Nordeste 0 -- -- 73
2019-08-09 10:00:00 22.3 10 Nordeste 16 Nordeste 0 -- -- 78
2019-08-09 09:00:00 20.7 8 Nordeste 11 Nordeste 0 -- -- 78
2019-08-09 08:00:00 17.9 4 Sudeste 10 Este 0 -- -- 63
2019-08-09 07:00:00 17.7 6 Sur 11 Sudeste 0 -- -- 77
2019-08-09 06:00:00 18.3 5 Sudeste 12 Nordeste 0 -- -- 90
2019-08-09 05:00:00 19.1 7 Sudeste 11 Este 0 -- -- 90
2019-08-09 04:00:00 19.2 5 Este 11 Sudeste 0 -- -- 91
2019-08-09 03:00:00 18.7 7 Este 9 Este 0 -- -- 89
2019-08-09 02:00:00 19.1 0 Calma 8 Sudeste 0 -- -- 86
2019-08-09 01:00:00 19.4 5 Sudeste 8 Sudeste 0 -- -- 85
2019-08-09 00:00:00 19.1 3 Sudeste 12 Este 0 -- -- 88
2019-08-08 23:00:00 19.8 6 Este 14 Este 0 -- -- 89
2019-08-08 22:00:00 20.3 9 Este 16 Nordeste 0 -- -- 88
2019-08-08 21:00:00 20.8 12 Nordeste 17 Nordeste 0 -- -- 85
2019-08-08 20:00:00 22.7 12 Nordeste 18 Nordeste 0 -- -- 75
2019-08-08 19:00:00 24.1 13 Nordeste 22 Nordeste 0 -- -- 73
2019-08-08 18:00:00 24.9 14 Nordeste 23 Nordeste 0 -- -- 69
2019-08-08 17:00:00 24.3 13 Norte 25 Nordeste 0 -- -- 72
2019-08-08 16:00:00 25.6 13 Norte 24 Norte 0 -- -- 66
2019-08-08 15:00:00 24.6 14 Norte 25 Norte 0 -- -- 68
2019-08-08 14:00:00 23.8 13 Norte 24 Norte 0 -- -- 71
2019-08-08 13:00:00 24 10 Norte 19 Nordeste 0 -- -- 72
2019-08-08 12:00:00 22.9 8 Noroeste 15 Noroeste 0 -- -- 76
2019-08-08 11:00:00 22.4 7 Norte 12 Norte 0 -- -- 76
2019-08-08 10:00:00 20.9 5 Sudoeste 8 Oeste 0 -- -- 79
2019-08-08 09:00:00 20.8 2 Sudoeste 12 Sudeste 0 -- -- 78
2019-08-08 08:00:00 17.6 8 Sur 14 Sudeste 0 -- -- 84
2019-08-08 07:00:00 17.6 10 Sudeste 14 Sudeste 0 -- -- 86
2019-08-08 06:00:00 17.8 10 Sudeste 15 Sudeste 0 -- -- 87
2019-08-08 05:00:00 17.5 12 Sudeste 16 Sudeste 0 -- -- 86
2019-08-08 04:00:00 17.9 13 Sudeste 17 Sudeste 0 -- -- 84
2019-08-08 03:00:00 18.5 10 Sudeste 14 Sudeste 0 -- -- 87
2019-08-08 02:00:00 18.3 11 Sudeste 14 Sudeste 0 -- -- 83
2019-08-08 01:00:00 18.3 9 Sudeste 14 Sudeste 0 -- -- 80
2019-08-08 00:00:00 18.9 8 Sudeste 12 Este 0 -- -- 85
2019-08-07 23:00:00 19.5 5 Sudeste 10 Este 0 -- -- 85
2019-08-07 22:00:00 20.2 8 Este 17 Nordeste 0 -- -- 84
2019-08-07 21:00:00 20.8 13 Este 23 Este 0 -- -- 78
2019-08-07 20:00:00 22.5 14 Nordeste 22 Nordeste 0 -- -- 76
2019-08-07 19:00:00 23.7 15 Nordeste 30 Nordeste 0 -- -- 71
2019-08-07 18:00:00 24.5 17 Nordeste 28 Nordeste 0 -- -- 66
2019-08-07 17:00:00 25.3 16 Nordeste 28 Nordeste 0 -- -- 64
2019-08-07 16:00:00 25 14 Nordeste 29 Norte 0 -- -- 66
2019-08-07 15:00:00 25.3 15 Nordeste 27 Nordeste 0 -- -- 63
2019-08-07 14:00:00 25.2 14 Nordeste 28 Nordeste 0 -- -- 61
2019-08-07 13:00:00 23.8 14 Nordeste 27 Este 0 -- -- 66
2019-08-07 12:00:00 22.4 14 Nordeste 24 Nordeste 0 -- -- 73
2019-08-07 11:00:00 22.3 10 Nordeste 18 Nordeste 0 -- -- 78
2019-08-07 10:00:00 21.6 6 Nordeste 18 Este 0 -- -- 80
2019-08-07 09:00:00 21.6 9 Este 17 Este 0 -- -- 77
2019-08-07 08:00:00 19 8 Sudeste 13 Sudeste 0 -- -- 85
2019-08-07 07:00:00 18.7 9 Sudeste 14 Sudeste 0 -- -- 84
2019-08-07 06:00:00 19.1 9 Este 16 Este 0 -- -- 89
2019-08-07 05:00:00 19.9 8 Este 16 Este 0 -- -- 88
2019-08-07 04:00:00 19.4 7 Sudeste 12 Nordeste 0 -- -- 90
2019-08-07 03:00:00 20.2 4 Norte 11 Nordeste 0 -- -- 91
2019-08-07 02:00:00 20.5 5 Norte 26 Nordeste 0 -- -- 88
2019-08-07 01:00:00 20.4 6 Este 14 Este 0 -- -- 84
2019-08-07 00:00:00 20.4 6 Este 12 Nordeste 0 -- -- 88
2019-08-06 23:00:00 20.6 6 Noroeste 12 Norte 0 -- -- 88
2019-08-06 22:00:00 20.7 5 Norte 12 Sudoeste 0 -- -- 84
2019-08-06 21:00:00 20.9 3 Este 22 Este 0 -- -- 80
2019-08-06 20:00:00 22.6 15 Nordeste 29 Este 0 -- -- 71
2019-08-06 19:00:00 24.3 14 Nordeste 23 Norte 0 -- -- 67
2019-08-06 18:00:00 24.8 13 Nordeste 23 Norte 0 -- -- 70
2019-08-06 17:00:00 24.5 8 Noroeste 21 Noroeste 0 -- -- 70
2019-08-06 16:00:00 24.1 11 Noroeste 22 Norte 0 -- -- 74
2019-08-06 15:00:00 23.6 11 Norte 19 Norte 0 -- -- 74
2019-08-06 14:00:00 23.2 11 Norte 19 Norte 0 -- -- 76
2019-08-06 13:00:00 23.3 10 Norte 16 Noroeste 0 -- -- 74
2019-08-06 12:00:00 22.4 7 Noroeste 13 Noroeste 0 -- -- 82
2019-08-06 11:00:00 22.6 9 Norte 17 Norte 0 -- -- 76
2019-08-06 10:00:00 21.7 6 Nordeste 10 Nordeste 0 -- -- 76
2019-08-06 09:00:00 20.8 3 Sudeste 12 Este 0 -- -- 76
2019-08-06 08:00:00 19 6 Sudeste 15 Este 0 -- -- 87
2019-08-06 07:00:00 19.5 7 Este 11 Este 0 -- -- 86
2019-08-06 06:00:00 19.8 6 Este 11 Este 0 -- -- 84
2019-08-06 05:00:00 20 4 Nordeste 12 Sudeste 0 -- -- 83
2019-08-06 04:00:00 19.6 3 Este 10 Nordeste 0 -- -- 90
2019-08-06 03:00:00 19.8 4 Este 10 Este 0 -- -- 85
2019-08-06 02:00:00 19.6 0 Calma 8 Norte 0 -- -- 91
2019-08-06 01:00:00 19.8 0 Calma 9 Nordeste 0 -- -- 92
2019-08-06 00:00:00 20 4 Noroeste 6 Noroeste 0 -- -- 90
2019-08-05 23:00:00 20.1 2 Norte 6 Este 0 -- -- 87
2019-08-05 22:00:00 20.3 0 Calma 9 Este 0 -- -- 86
2019-08-05 21:00:00 20.8 7 Nordeste 14 Nordeste 0 -- -- 82
2019-08-05 20:00:00 22.2 9 Norte 21 Nordeste 0 -- -- 80
2019-08-05 19:00:00 24.3 10 Norte 22 Norte 0 -- -- 70
2019-08-05 18:00:00 24 10 Nordeste 25 Nordeste 0 -- -- 70
2019-08-05 17:00:00 24.3 10 Nordeste 24 Nordeste 0 -- -- 69
2019-08-05 16:00:00 22.6 10 Nordeste 24 Nordeste 0 -- -- 76
2019-08-05 15:00:00 23.4 11 Nordeste 26 Nordeste 0 -- -- 70
2019-08-05 14:00:00 25.1 12 Norte 21 Nordeste 0 -- -- 63
2019-08-05 13:00:00 23.9 10 Norte 19 Norte 0 -- -- 68
2019-08-05 12:00:00 23 12 Norte 20 Norte 0 -- -- 71
2019-08-05 11:00:00 22.7 6 Norte 14 Norte 0 -- -- 76
2019-08-05 10:00:00 21.3 8 Nordeste 13 Nordeste 0 -- -- 82
2019-08-05 09:00:00 19.9 8 Nordeste 13 Nordeste 0 -- -- 90
2019-08-05 08:00:00 20 5 Sudoeste 8 Sudoeste 0 -- -- 86
2019-08-05 07:00:00 20 2 Norte 9 Sudoeste 0 -- -- 85
2019-08-05 06:00:00 19.7 4 Sudoeste 11 Sudoeste 0 -- -- 88
2019-08-05 05:00:00 19.7 3 Oeste 10 Este 0 -- -- 91
2019-08-05 04:00:00 19.8 5 Noroeste 19 Este 0 -- -- 94
2019-08-05 03:00:00 20 5 Norte 12 Sur 0 -- -- 91
2019-08-05 02:00:00 19.9 2 Sur 14 Nordeste 0 -- -- 91
2019-08-05 01:00:00 20.1 7 Noroeste 17 Norte 0 -- -- 92
2019-08-05 00:00:00 20.3 5 Noroeste 10 Este 0 -- -- 89
2019-08-04 23:00:00 20.2 5 Noroeste 10 Noroeste 0 -- -- 90
2019-08-04 22:00:00 20.5 4 Noroeste 12 Norte 0 -- -- 90
2019-08-04 21:00:00 21.3 4 Noroeste 17 Nordeste 0 -- -- 80
2019-08-04 20:00:00 23.1 12 Nordeste 24 Nordeste 0 -- -- 70
2019-08-04 19:00:00 24 15 Nordeste 27 Nordeste 0 -- -- 66
2019-08-04 18:00:00 22.8 10 Norte 19 Noroeste 0 -- -- 76
2019-08-04 17:00:00 23.3 9 Noroeste 17 Noroeste 0 -- -- 77
2019-08-04 16:00:00 23.8 10 Noroeste 17 Noroeste 0 -- -- 71
2019-08-04 15:00:00 23.7 11 Noroeste 26 Norte 0 -- -- 67
2019-08-04 14:00:00 23.2 12 Norte 36 Nordeste 0 -- -- 66
2019-08-04 13:00:00 23.8 8 Norte 20 Nordeste 0 -- -- 61
2019-08-04 12:00:00 22.5 7 Noroeste 17 Norte 0 -- -- 65
2019-08-04 11:00:00 21.1 6 Norte 13 Norte 0 -- -- 76
2019-08-04 10:00:00 21.6 6 Norte 15 Nordeste 0 -- -- 71
2019-08-04 09:00:00 20 6 Este 10 Este 0 -- -- 82
2019-08-04 08:00:00 18.7 3 Sudeste 9 Este 0 -- -- 87
2019-08-04 07:00:00 18.6 5 Sudeste 10 Este 0 -- -- 82
2019-08-04 06:00:00 19 6 Sudeste 13 Este 0 -- -- 77
2019-08-04 05:00:00 18.7 3 Sudeste 11 Sudeste 0 -- -- 83
2019-08-04 04:00:00 17.9 6 Sudeste 12 Sudeste 0 -- -- 88
2019-08-04 03:00:00 18.4 3 Este 8 Este 0 -- -- 87
2019-08-04 02:00:00 18.8 4 Este 8 Norte 0 -- -- 86
2019-08-04 01:00:00 19 0 Calma 9 Nordeste 0 -- -- 85
2019-08-04 00:00:00 19 0 Calma 6 Nordeste 0 -- -- 86
2019-08-03 23:00:00 19 3 Nordeste 7 Noroeste 0 -- -- 84
2019-08-03 22:00:00 19.4 3 Nordeste 10 Norte 0 -- -- 81
2019-08-03 21:00:00 20 6 Norte 18 Norte 0 -- -- 79
2019-08-03 20:00:00 22.1 9 Norte 18 Norte 0 -- -- 71
2019-08-03 19:00:00 23.5 8 Norte 22 Noroeste 0 -- -- 69
2019-08-03 18:00:00 23.1 12 Norte 25 Norte 0 -- -- 72
2019-08-03 17:00:00 22.8 11 Norte 24 Norte 0 -- -- 68
2019-08-03 16:00:00 22.6 14 Norte 23 Norte 0 -- -- 70
2019-08-03 15:00:00 23.5 12 Nordeste 23 Noroeste 0 -- -- 68
2019-08-03 14:00:00 22.2 9 Norte 17 Noroeste 0 -- -- 70
2019-08-03 13:00:00 22 10 Norte 18 Norte 0 -- -- 72
2019-08-03 12:00:00 21.7 7 Norte 17 Norte 0 -- -- 72
2019-08-03 11:00:00 21.3 6 Norte 17 Norte 0 -- -- 74
2019-08-03 10:00:00 20.5 5 Norte 14 Nordeste 0 -- -- 75
2019-08-03 09:00:00 19.9 5 Nordeste 13 Norte 0 -- -- 77
2019-08-03 08:00:00 19.4 5 Nordeste 15 Este 0 -- -- 78
2019-08-03 07:00:00 19.1 6 Nordeste 14 Este 0 -- -- 84
2019-08-03 06:00:00 19.3 8 Nordeste 12 Este 0 -- -- 84
2019-08-03 05:00:00 18.9 6 Sudeste 14 Nordeste 0 -- -- 79
2019-08-03 04:00:00 18.9 11 Nordeste 18 Nordeste 0 -- -- 86
2019-08-03 03:00:00 19.3 10 Nordeste 15 Nordeste 0 -- -- 87
2019-08-03 02:00:00 19.8 3 Este 9 Sur 0 -- -- 79
2019-08-03 01:00:00 19.7 3 Este 10 Nordeste 0 -- -- 83
2019-08-03 00:00:00 19.7 6 Este 16 Nordeste 0 -- -- 82
2019-08-02 23:00:00 19.9 5 Nordeste 16 Nordeste 0 -- -- 79
2019-08-02 22:00:00 20.1 7 Nordeste 17 Nordeste 0 -- -- 78
2019-08-02 21:00:00 20.4 12 Nordeste 20 Nordeste 0 -- -- 79
2019-08-02 20:00:00 21.3 8 Nordeste 22 Norte 0 -- -- 71
2019-08-02 19:00:00 22 12 Nordeste 23 Norte 0 -- -- 71
2019-08-02 18:00:00 23.5 13 Norte 23 Norte 0 -- -- 64
2019-08-02 17:00:00 22.9 13 Norte 30 Norte 0 -- -- 66
2019-08-02 16:00:00 22.8 15 Norte 30 Noroeste 0 -- -- 68
2019-08-02 15:00:00 23.2 12 Norte 28 Norte 0 -- -- 61
2019-08-02 14:00:00 22.9 12 Norte 27 Norte 0 -- -- 64
2019-08-02 13:00:00 22.3 13 Norte 24 Nordeste 0 -- -- 69
2019-08-02 12:00:00 22.4 10 Nordeste 25 Nordeste 0 -- -- 66
2019-08-02 11:00:00 21.7 9 Norte 16 Norte 0 -- -- 73
2019-08-02 10:00:00 21 9 Nordeste 16 Nordeste 0 -- -- 72
2019-08-02 09:00:00 20.2 9 Nordeste 16 Este 0 -- -- 70
2019-08-02 08:00:00 19.4 7 Nordeste 13 Nordeste 0 -- -- 86
2019-08-02 07:00:00 19.3 6 Este 12 Nordeste 0 -- -- 79
2019-08-02 06:00:00 19.3 6 Nordeste 11 Nordeste 0 -- -- 82
2019-08-02 05:00:00 19.2 7 Nordeste 13 Nordeste 0 -- -- 84
2019-08-02 04:00:00 19.2 6 Este 10 Este 0 -- -- 79
2019-08-02 03:00:00 19 4 Este 14 Este 0 -- -- 76
2019-08-02 02:00:00 19.2 10 Nordeste 17 Este 0 -- -- 77
2019-08-02 01:00:00 19.4 8 Este 17 Este 0 -- -- 78
2019-08-02 00:00:00 19.6 3 Este 17 Nordeste 0 -- -- 76
2019-08-01 23:00:00 19.5 11 Nordeste 18 Nordeste 0 -- -- 75
2019-08-01 22:00:00 19.5 10 Nordeste 19 Nordeste 0 -- -- 81
2019-08-01 21:00:00 20.1 12 Nordeste 25 Norte 0 -- -- 83
2019-08-01 20:00:00 23 12 Nordeste 27 Nordeste 0 -- -- 72
2019-08-01 19:00:00 23.8 14 Nordeste 27 Nordeste 0 -- -- 65
2019-08-01 18:00:00 24.4 11 Nordeste 24 Noroeste 0 -- -- 64
2019-08-01 17:00:00 24 13 Nordeste 29 Noroeste 0 -- -- 63
2019-08-01 16:00:00 22.9 14 Norte 26 Norte 0 -- -- 71
2019-08-01 15:00:00 23.3 14 Noroeste 26 Norte 0 -- -- 64
2019-08-01 14:00:00 22.9 12 Norte 27 Noroeste 0 -- -- 62
2019-08-01 13:00:00 22.2 12 Norte 24 Noroeste 0 -- -- 67
2019-08-01 12:00:00 20.7 9 Norte 16 Norte 0 -- -- 74
2019-08-01 11:00:00 20.6 4 Oeste 9 Noroeste 0 -- -- 76
2019-08-01 10:00:00 20.1 5 Noroeste 11 Norte 0 -- -- 75
2019-08-01 09:00:00 20.1 3 Este 14 Nordeste 0 -- -- 73
2019-08-01 08:00:00 19 3 Noroeste 10 Este 0 -- -- 83
2019-08-01 07:00:00 18.7 5 Nordeste 12 Norte 0 -- -- 80
2019-08-01 06:00:00 18.8 3 Sur 8 Este 0 -- -- 76
2019-08-01 05:00:00 18.9 4 Nordeste 8 Nordeste 0 -- -- 78
2019-08-01 04:00:00 18.7 3 Este 9 Nordeste 0 -- -- 75
2019-08-01 03:00:00 18.7 0 Calma 10 Nordeste 0 -- -- 79
2019-08-01 02:00:00 18.5 5 Este 14 Nordeste 0 -- -- 81
2019-08-01 01:00:00 18.9 6 Nordeste 12 Nordeste 0 -- -- 83
2019-08-01 00:00:00 18.8 5 Norte 16 Norte 0 -- -- 80
2019-07-31 23:00:00 19.4 5 Sudoeste 16 Noroeste 0 -- -- 76
2019-07-31 22:00:00 19.3 5 Noroeste 10 Noroeste 0 -- -- 80
2019-07-31 21:00:00 19.9 4 Noroeste 18 Norte 0 -- -- 73
2019-07-31 20:00:00 21.5 9 Noroeste 19 Norte 0 -- -- 69
2019-07-31 19:00:00 21.6 11 Noroeste 23 Norte 0 -- -- 70
2019-07-31 18:00:00 22.7 9 Norte 29 Noroeste 0 -- -- 64
2019-07-31 17:00:00 22.3 12 Norte 25 Noroeste 0 -- -- 65
2019-07-31 16:00:00 22.3 13 Norte 27 Norte 0 -- -- 67
2019-07-31 15:00:00 21.9 14 Norte 30 Norte 0 -- -- 71
2019-07-31 14:00:00 22.2 8 Noroeste 15 Oeste 0 -- -- 71
2019-07-31 13:00:00 21.3 9 Oeste 18 Norte 0 -- -- 74
2019-07-31 12:00:00 19.4 10 Norte 17 Norte 0 -- -- 81
2019-07-31 11:00:00 19.6 3 Oeste 15 Norte 0 -- -- 83
2019-07-31 10:00:00 20.6 3 Norte 18 Nordeste 0 -- -- 65
2019-07-31 09:00:00 19.5 14 Nordeste 27 Norte 0 -- -- 67
2019-07-31 08:00:00 18.4 9 Norte 18 Norte 0 -- -- 83
2019-07-31 07:00:00 18.3 5 Noroeste 10 Noroeste 0 -- -- 80
2019-07-31 06:00:00 18 6 Nordeste 19 Norte 0 -- -- 74
2019-07-31 05:00:00 18.6 10 Norte 21 Norte 0 -- -- 76
2019-07-31 04:00:00 18.6 7 Norte 19 Norte 0 -- -- 76
2019-07-31 03:00:00 18.6 9 Norte 16 Noroeste 0 -- -- 81
2019-07-31 02:00:00 18.5 5 Sudoeste 11 Norte 0 -- -- 81
2019-07-31 01:00:00 18.5 5 Norte 20 Nordeste 0 -- -- 81
2019-07-31 00:00:00 19 8 Norte 16 Nordeste 0 -- -- 84
2019-07-30 23:00:00 18.8 8 Nordeste 18 Nordeste 0 -- -- 86
2019-07-30 22:00:00 18.7 6 Noroeste 16 Noroeste 0 -- -- 90
2019-07-30 21:00:00 19.7 6 Oeste 16 Noroeste 0 -- -- 81
2019-07-30 20:00:00 20.5 9 Noroeste 26 Norte 0 -- -- 77
2019-07-30 19:00:00 20.5 10 Norte 21 Norte 0 -- -- 75
2019-07-30 18:00:00 20.5 13 Norte 24 Norte 0 -- -- 80
2019-07-30 17:00:00 21.4 9 Norte 17 Norte 0 -- -- 76
2019-07-30 16:00:00 20.7 5 Norte 22 Nordeste 0 -- -- 80
2019-07-30 15:00:00 20.8 15 Nordeste 26 Nordeste 0 -- -- 83
2019-07-30 14:00:00 21.3 16 Norte 26 Norte 0 -- -- 81
2019-07-30 13:00:00 20.7 8 Norte 19 Noroeste 0 -- -- 89
2019-07-30 12:00:00 19.1 8 Noroeste 30 Nordeste 0 -- -- 96
2019-07-30 11:00:00 18.6 17 Norte 30 Nordeste 0 -- -- 98
2019-07-30 10:00:00 18.4 6 Oeste 14 Oeste 0 -- -- 98
2019-07-30 09:00:00 18.1 6 Norte 30 Nordeste 0 -- -- 97
2019-07-30 08:00:00 19 11 Nordeste 23 Norte 0 -- -- 95
2019-07-30 07:00:00 19.3 3 Noroeste 14 Norte 0 -- -- 96
2019-07-30 06:00:00 19.2 6 Nordeste 27 Norte 0 -- -- 95
2019-07-30 05:00:00 19.7 2 Sudoeste 11 Oeste 0 -- -- 93
2019-07-30 04:00:00 19.7 5 Oeste 10 Sudoeste 0 -- -- 94
2019-07-30 03:00:00 19.7 6 Oeste 10 Sur 0 -- -- 93
2019-07-30 02:00:00 20 5 Oeste 11 Oeste 0 -- -- 92
2019-07-30 01:00:00 20.1 5 Oeste 11 Oeste 0 -- -- 91
2019-07-30 00:00:00 20.3 6 Oeste 10 Noroeste 0 -- -- 88
2019-07-29 23:00:00 20.4 4 Oeste 9 Sudoeste 0 -- -- 83
2019-07-29 22:00:00 20.7 3 Noroeste 10 Sur 0 -- -- 80
2019-07-29 21:00:00 20.5 4 Oeste 10 Oeste 0 -- -- 82
2019-07-29 20:00:00 21 4 Noroeste 14 Noroeste 0 -- -- 79
2019-07-29 19:00:00 21.8 6 Oeste 18 Noroeste 0 -- -- 75
2019-07-29 18:00:00 24.4 11 Oeste 21 Noroeste 0 -- -- 67
2019-07-29 17:00:00 22.8 12 Norte 25 Noroeste 0 -- -- 70
2019-07-29 16:00:00 23.2 12 Norte 24 Norte 0 -- -- 70
2019-07-29 15:00:00 23 12 Norte 27 Noroeste 0 -- -- 66
2019-07-29 14:00:00 22.8 9 Noroeste 18 Noroeste 0 -- -- 72
2019-07-29 13:00:00 22.9 9 Noroeste 18 Noroeste 0 -- -- 66
2019-07-29 12:00:00 21.8 10 Noroeste 23 Norte 0 -- -- 68
2019-07-29 11:00:00 22 8 Nordeste 18 Nordeste 0 -- -- 70
2019-07-29 10:00:00 21.4 12 Nordeste 19 Nordeste 0 -- -- 66
2019-07-29 09:00:00 20.1 6 Norte 12 Norte 0 -- -- 76
2019-07-29 08:00:00 19.4 3 Nordeste 9 Nordeste 0 -- -- 77
2019-07-29 07:00:00 19.3 3 Noroeste 14 Noroeste 0 -- -- 78
2019-07-29 06:00:00 19.4 7 Norte 13 Norte 0 -- -- 76
2019-07-29 05:00:00 19.4 4 Norte 11 Este 0 -- -- 84
2019-07-29 04:00:00 19.5 9 Nordeste 15 Nordeste 0 -- -- 86
2019-07-29 03:00:00 19.8 5 Oeste 7 Sudoeste 0 -- -- 83
2019-07-29 02:00:00 19.6 0 Calma 8 Nordeste 0 -- -- 86
2019-07-29 01:00:00 19.7 3 Nordeste 14 Nordeste 0 -- -- 86
2019-07-29 00:00:00 19.9 3 Este 12 Nordeste 0 -- -- 85
2019-07-28 23:00:00 19.6 5 Este 12 Nordeste 0 -- -- 86
2019-07-28 22:00:00 19.9 4 Este 11 Este 0 -- -- 84
2019-07-28 21:00:00 20.7 7 Nordeste 26 Norte 0 -- -- 76
2019-07-28 20:00:00 22.6 13 Nordeste 22 Nordeste 0 -- -- 73
2019-07-28 19:00:00 24.4 11 Norte 21 Norte 0 -- -- 69
2019-07-28 18:00:00 23.9 12 Nordeste 26 Nordeste 0 -- -- 72
2019-07-28 17:00:00 23.9 13 Nordeste 26 Norte 0 -- -- 73
2019-07-28 16:00:00 23.8 12 Norte 22 Este 0 -- -- 81
2019-07-28 15:00:00 23.6 9 Norte 20 Nordeste 0 -- -- 80
2019-07-28 14:00:00 22.6 7 Nordeste 17 Norte 0 -- -- 88
2019-07-28 13:00:00 22.5 10 Nordeste 18 Nordeste 0 -- -- 87
2019-07-28 12:00:00 21.2 9 Nordeste 18 Este 0 -- -- 93
2019-07-28 11:00:00 20.5 5 Nordeste 14 Nordeste 0 -- -- 94
2019-07-28 10:00:00 19.9 3 Noroeste 9 Oeste 0 -- -- 92
2019-07-28 09:00:00 19.7 4 Sur 9 Sudeste 0 -- -- 90
2019-07-28 08:00:00 19.3 6 Este 12 Este 0 -- -- 90
2019-07-28 07:00:00 19.3 4 Sur 11 Sudeste 0 -- -- 89
2019-07-28 06:00:00 19 6 Este 11 Este 0 -- -- 94
2019-07-28 05:00:00 18.9 6 Nordeste 12 Este 0 -- -- 94
2019-07-28 04:00:00 18.9 9 Este 13 Este 0 -- -- 95
2019-07-28 03:00:00 18.9 10 Este 20 Nordeste 0 -- -- 94
2019-07-28 02:00:00 18.7 10 Sudeste 18 Sudeste 0 -- -- 89
2019-07-28 01:00:00 19.4 8 Este 15 Este 0 -- -- 81
2019-07-28 00:00:00 19.2 7 Este 16 Este 0 -- -- 84
2019-07-27 23:00:00 19.2 10 Este 18 Nordeste 0 -- -- 85
2019-07-27 22:00:00 19.2 3 Sudeste 15 Nordeste 0 -- -- 85
2019-07-26 11:00:00 -- -- -- -- -- -- -- -- --
2019-07-26 10:00:00 21.2 14 Nordeste 23 Nordeste 0 -- -- 84
2019-07-26 09:00:00 20 14 Nordeste 19 Este 0 -- -- 89
2019-07-26 08:00:00 19.2 8 Este 16 Sudeste 0 -- -- 91
2019-07-26 07:00:00 19 8 Este 20 Este 0 -- -- 92
2019-07-26 06:00:00 19.1 9 Este 21 Este 0 -- -- 92
2019-07-26 05:00:00 18.6 7 Este 18 Este 0 -- -- 90
2019-07-26 04:00:00 19.2 10 Este 23 Nordeste 0 -- -- 91
2019-07-26 03:00:00 20.2 10 Nordeste 18 Nordeste 0 -- -- 90
2019-07-26 02:00:00 20 10 Este 21 Nordeste 0 -- -- 88
2019-07-26 01:00:00 20.5 8 Sudeste 13 Sudeste 0 -- -- 85
2019-07-26 00:00:00 20.3 6 Este 15 Nordeste 0 -- -- 84
2019-07-25 23:00:00 20.6 6 Este 15 Nordeste 0 -- -- 86
2019-07-25 22:00:00 20.7 10 Este 23 Nordeste 0 -- -- 85
2019-07-25 21:00:00 20.8 16 Nordeste 31 Nordeste 0 -- -- 82
2019-07-25 20:00:00 22.6 19 Nordeste 27 Este 0 -- -- 71
2019-07-25 19:00:00 23.4 22 Nordeste 30 Nordeste 0 -- -- 68
2019-07-25 18:00:00 24.6 17 Nordeste 26 Nordeste 0 -- -- 65
2019-07-25 17:00:00 25.5 14 Nordeste 29 Nordeste 0 -- -- 62
2019-07-25 16:00:00 24.9 18 Nordeste 30 Nordeste 0 -- -- 64
2019-07-25 15:00:00 24.4 18 Nordeste 33 Nordeste 0 -- -- 68
2019-07-25 14:00:00 24.8 15 Nordeste 27 Nordeste 0 -- -- 65
2019-07-25 13:00:00 23.8 18 Nordeste 31 Nordeste 0 -- -- 67
2019-07-25 12:00:00 23.9 19 Nordeste 27 Nordeste 0 -- -- 68
2019-07-25 11:00:00 23 12 Nordeste 21 Nordeste 0 -- -- 72
2019-07-25 10:00:00 21.6 13 Nordeste 22 Nordeste 0 -- -- 75
2019-07-25 09:00:00 22.8 0 Calma 13 Sudeste 0 -- -- 49
2019-07-25 08:00:00 19.5 10 Sudeste 17 Sudeste 0 -- -- 39
2019-07-25 07:00:00 19.6 11 Sudeste 17 Sudeste 0 -- -- 40
2019-07-25 06:00:00 19.7 10 Sudeste 19 Este 0 -- -- 43
2019-07-25 05:00:00 19.5 12 Sudeste 17 Sudeste 0 -- -- 46
2019-07-25 04:00:00 18.2 8 Sudeste 17 Sudeste 0 -- -- 53
2019-07-25 03:00:00 18.3 10 Este 18 Este 0 -- -- 68
2019-07-25 02:00:00 18.3 11 Este 17 Sudeste 0 -- -- 84
2019-07-25 01:00:00 18.3 10 Este 14 Este 0 -- -- 86
2019-07-25 00:00:00 18.9 8 Este 14 Este 0 -- -- 83
2019-07-24 23:00:00 19.2 8 Este 14 Este 0 -- -- 79
2019-07-24 22:00:00 19.9 6 Este 13 Nordeste 0 -- -- 70
2019-07-24 21:00:00 20.6 9 Nordeste 17 Nordeste 0 -- -- 81
2019-07-24 20:00:00 23.5 11 Nordeste 24 Nordeste 0 -- -- 69
2019-07-24 19:00:00 23.8 14 Nordeste 21 Nordeste 0 -- -- 70
2019-07-24 18:00:00 24.1 12 Norte 23 Nordeste 0 -- -- 68
2019-07-24 17:00:00 24.7 14 Nordeste 27 Nordeste 0 -- -- 64
2019-07-24 16:00:00 25.4 15 Nordeste 27 Norte 0 -- -- 62
2019-07-24 15:00:00 24.7 18 Nordeste 26 Nordeste 0 -- -- 64
2019-07-24 14:00:00 24.4 17 Nordeste 26 Nordeste 0 -- -- 64
2019-07-24 13:00:00 23.9 17 Nordeste 32 Nordeste 0 -- -- 66
2019-07-24 12:00:00 23.2 18 Nordeste 28 Nordeste 0 -- -- 69
2019-07-24 11:00:00 22.6 15 Nordeste 24 Nordeste 0 -- -- 69
2019-07-24 10:00:00 21.4 13 Nordeste 25 Nordeste 0 -- -- 73
2019-07-24 09:00:00 20.2 10 Este 21 Este 0 -- -- 77
2019-07-24 08:00:00 17.4 12 Este 17 Sudeste 0 -- -- 87
2019-07-24 07:00:00 18 10 Este 18 Nordeste 0 -- -- 85
2019-07-24 06:00:00 18.6 5 Este 8 Este 0 -- -- 87
2019-07-24 05:00:00 18.5 4 Este 11 Este 0 -- -- 83
2019-07-24 04:00:00 18.3 7 Este 12 Este 0 -- -- 84
2019-07-24 03:00:00 18.7 5 Sudeste 9 Nordeste 0 -- -- 85
2019-07-24 02:00:00 19.1 3 Este 8 Nordeste 0 -- -- 84
2019-07-24 01:00:00 18.9 3 Sudeste 9 Sudeste 0 -- -- 82
2019-07-24 00:00:00 19.4 4 Sudeste 9 Nordeste 0 -- -- 79
2019-07-23 23:00:00 19.4 4 Nordeste 9 Este 0 -- -- 80
2019-07-23 22:00:00 19.4 3 Norte 13 Norte 0 -- -- 78
2019-07-23 21:00:00 20.1 7 Norte 19 Nordeste 0 -- -- 75
2019-07-23 20:00:00 21.8 11 Norte 23 Noroeste 0 -- -- 68
2019-07-23 19:00:00 23.2 10 Nordeste 27 Norte 0 -- -- 66
2019-07-23 18:00:00 23.4 13 Norte 27 Norte 0 -- -- 65
2019-07-23 17:00:00 23.5 12 Norte 26 Norte 0 -- -- 61
2019-07-23 16:00:00 24.2 15 Nordeste 30 Noroeste 0 -- -- 60
2019-07-23 15:00:00 24.1 12 Norte 25 Nordeste 0 -- -- 61
2019-07-23 14:00:00 22.6 12 Nordeste 31 Nordeste 0 -- -- 66
2019-07-23 13:00:00 23.5 16 Nordeste 29 Nordeste 0 -- -- 61
2019-07-23 12:00:00 23.1 12 Nordeste 25 Nordeste 0 -- -- 66
2019-07-23 11:00:00 21.3 10 Norte 16 Norte 0 -- -- 68
2019-07-23 10:00:00 20.2 4 Norte 13 Este 0 -- -- 72
2019-07-23 09:00:00 19.1 5 Norte 12 Norte 0 -- -- 76
2019-07-23 08:00:00 18.6 2 Norte 9 Nordeste 0 -- -- 80
2019-07-23 07:00:00 18.6 3 Noroeste 13 Nordeste 0 -- -- 79
2019-07-23 06:00:00 18.6 4 Norte 13 Norte 0 -- -- 77
2019-07-23 05:00:00 18.9 5 Nordeste 12 Norte 0 -- -- 77
2019-07-23 04:00:00 18.8 8 Nordeste 12 Nordeste 0 -- -- 75
2019-07-23 03:00:00 18.8 6 Nordeste 12 Norte 0 -- -- 75
2019-07-23 02:00:00 19 6 Noroeste 15 Norte 0 -- -- 76
2019-07-23 01:00:00 19.2 4 Noroeste 12 Norte 0 -- -- 78
2019-07-23 00:00:00 19.2 4 Noroeste 16 Nordeste 0 -- -- 78
2019-07-22 23:00:00 19.5 9 Nordeste 14 Nordeste 0 -- -- 77
2019-07-22 22:00:00 19.5 6 Norte 16 Norte 0 -- -- 76
2019-07-22 21:00:00 19.8 5 Nordeste 21 Este 0 -- -- 74
2019-07-22 20:00:00 21.5 12 Norte 27 Norte 0 -- -- 70
2019-07-22 19:00:00 23.2 13 Nordeste 26 Nordeste 0 -- -- 67
2019-07-22 18:00:00 23 16 Nordeste 33 Nordeste 0 -- -- 65
2019-07-22 17:00:00 24.1 16 Nordeste 28 Nordeste 0 -- -- 62
2019-07-22 16:00:00 24 14 Nordeste 27 Noroeste 0 -- -- 64
2019-07-22 15:00:00 23.1 13 Norte 28 Nordeste 0 -- -- 62
2019-07-22 14:00:00 22.6 12 Norte 22 Nordeste 0 -- -- 72
2019-07-22 13:00:00 23.4 12 Nordeste 24 Nordeste 0 -- -- 64
2019-07-22 12:00:00 22.2 8 Norte 24 Nordeste 0 -- -- 66
2019-07-22 11:00:00 20.9 8 Nordeste 17 Este 0 -- -- 73
2019-07-22 10:00:00 20 9 Nordeste 18 Nordeste 0 -- -- 78
2019-07-22 09:00:00 19.3 7 Nordeste 13 Nordeste 0 -- -- 81
2019-07-22 08:00:00 18.8 7 Nordeste 14 Nordeste 0 -- -- 82
2019-07-22 07:00:00 18.8 8 Nordeste 15 Nordeste 0 -- -- 84
2019-07-22 06:00:00 -- 10 Nordeste 18 Nordeste 0 -- -- --
2019-07-22 05:00:00 18.9 5 Nordeste 14 Este 0 -- -- 84
2019-07-22 04:00:00 18.9 8 Nordeste 18 Nordeste 0 -- -- 84
2019-07-22 03:00:00 18.7 10 Nordeste 16 Este 0 -- -- 89
2019-07-22 02:00:00 19.3 6 Este 16 Nordeste 0 -- -- 84
2019-07-22 01:00:00 19.5 9 Nordeste 18 Nordeste 0 -- -- 85
2019-07-22 00:00:00 19.7 6 Este 17 Nordeste 0 -- -- 84
2019-07-21 23:00:00 19.8 10 Nordeste 18 Nordeste 0 -- -- 83
2019-07-21 22:00:00 19.9 9 Nordeste 17 Nordeste 0 -- -- 84
2019-07-21 21:00:00 20.3 8 Nordeste 22 Nordeste 0 -- -- 81
2019-07-21 20:00:00 20.9 12 Nordeste 20 Nordeste 0 -- -- 80
2019-07-21 19:00:00 21.7 12 Nordeste 21 Nordeste 0 -- -- 72
2019-07-21 18:00:00 22.4 15 Nordeste 30 Nordeste 0 -- -- 68
2019-07-21 17:00:00 22.9 12 Nordeste 30 Nordeste 0 -- -- 71
2019-07-21 16:00:00 23.4 17 Nordeste 32 Nordeste 0 -- -- 67
2019-07-21 15:00:00 22.8 13 Nordeste 33 Este 0 -- -- 73
2019-07-21 14:00:00 23.2 17 Nordeste 28 Nordeste 0 -- -- 67
2019-07-21 13:00:00 22.2 17 Nordeste 28 Este 0 -- -- 70
2019-07-21 12:00:00 22.3 15 Nordeste 30 Nordeste 0 -- -- 71
2019-07-21 11:00:00 20.6 17 Nordeste 28 Nordeste 0 -- -- 79
2019-07-21 10:00:00 20.5 16 Nordeste 24 Este 0 -- -- 79
2019-07-21 09:00:00 19.9 12 Nordeste 20 Nordeste 0 -- -- 80
2019-07-21 08:00:00 19.3 9 Nordeste 23 Nordeste 0 -- -- 83
2019-07-21 07:00:00 19.2 8 Nordeste 27 Nordeste 0 -- -- 85
2019-07-21 06:00:00 19.1 14 Nordeste 23 Nordeste 0 -- -- 84
2019-07-21 05:00:00 19.2 11 Este 22 Nordeste 0 -- -- 83
2019-07-21 04:00:00 19.2 13 Nordeste 24 Nordeste 0 -- -- 84
2019-07-21 03:00:00 19.5 12 Nordeste 24 Este 0 -- -- 84
2019-07-21 02:00:00 19.8 17 Este 30 Nordeste 0 -- -- 82
2019-07-21 01:00:00 19.5 19 Este 30 Nordeste 0 -- -- 87
2019-07-21 00:00:00 20.1 14 Este 26 Este 0 -- -- 80
2019-07-20 23:00:00 20.1 11 Nordeste 22 Este 0 -- -- 88
2019-07-20 22:00:00 19.9 12 Nordeste 22 Nordeste 0 -- -- 88
2019-07-20 21:00:00 20.5 10 Este 20 Nordeste 0 -- -- 85
2019-07-20 20:00:00 21.1 9 Nordeste 17 Nordeste 0 -- -- 79
2019-07-20 19:00:00 22.1 12 Norte 24 Nordeste 0 -- -- 71
2019-07-20 18:00:00 22.9 9 Norte 22 Norte 0 -- -- 71
2019-07-20 17:00:00 23.4 8 Noroeste 18 Noroeste 0 -- -- 69
2019-07-20 16:00:00 23 5 Este 18 Norte 0 -- -- 71
2019-07-20 15:00:00 21.8 6 Norte 19 Norte 0 -- -- 72
2019-07-20 14:00:00 22.3 6 Nordeste 21 Nordeste 0 -- -- 70
2019-07-20 13:00:00 22.5 10 Norte 22 Este 0 -- -- 74
2019-07-20 12:00:00 20.1 7 Norte 15 Norte 0 -- -- 83
2019-07-20 11:00:00 20.2 4 Nordeste 12 Norte 0 -- -- 88
2019-07-20 10:00:00 19.7 5 Este 12 Este 0 -- -- 85
2019-07-20 09:00:00 18.9 6 Nordeste 13 Este 0 -- -- 92
2019-07-20 08:00:00 17.6 5 Este 19 Nordeste 0 -- -- 95
2019-07-20 07:00:00 17.8 9 Este 21 Este 0 -- -- 95
2019-07-20 06:00:00 18.3 12 Nordeste 23 Nordeste 0 -- -- 94
2019-07-20 05:00:00 18.9 3 Sudoeste 10 Sur 0 -- -- 86
2019-07-20 04:00:00 19.1 4 Noroeste 10 Oeste 0 -- -- 84
2019-07-20 03:00:00 19 5 Sudoeste 13 Noroeste 0 -- -- 86
2019-07-20 02:00:00 19.4 2 Este 11 Nordeste 0 -- -- 85
2019-07-20 01:00:00 19.3 7 Nordeste 14 Nordeste 0 -- -- 87
2019-07-20 00:00:00 19.4 5 Noroeste 11 Norte 0 -- -- 83
2019-07-19 23:00:00 19.5 5 Norte 10 Norte 0 -- -- 90
2019-07-19 22:00:00 19.5 4 Nordeste 12 Noroeste 0 -- -- 89
2019-07-19 21:00:00 19.8 8 Norte 14 Norte 0 -- -- 85
2019-07-19 20:00:00 20.4 8 Norte 19 Norte 0 -- -- 83
2019-07-19 19:00:00 20.8 10 Norte 23 Norte 0 -- -- 80
2019-07-19 18:00:00 22.9 11 Noroeste 20 Norte 0 -- -- 74
2019-07-19 17:00:00 21.9 10 Noroeste 15 Noroeste 0 -- -- 78
2019-07-19 16:00:00 21.4 8 Noroeste 14 Noroeste 0 -- -- 77
2019-07-19 15:00:00 22.6 9 Noroeste 17 Noroeste 0 -- -- 71
2019-07-19 14:00:00 21.7 10 Oeste 15 Oeste 0 -- -- 72
2019-07-19 13:00:00 22.1 9 Noroeste 17 Oeste 0 -- -- 67
2019-07-19 12:00:00 22.5 8 Noroeste 15 Oeste 0 -- -- 62
2019-07-19 11:00:00 21.6 8 Oeste 15 Norte 0 -- -- 70
2019-07-19 10:00:00 21.5 8 Oeste 16 Noroeste 0 -- -- 68
2019-07-19 09:00:00 20 6 Noroeste 17 Oeste 0 -- -- 69
2019-07-19 08:00:00 19.1 7 Noroeste 15 Oeste 0 -- -- 76
2019-07-19 07:00:00 18.6 6 Sudoeste 11 Sudoeste 0 -- -- 83
2019-07-19 06:00:00 18.5 9 Noroeste 15 Noroeste 0 -- -- 83
2019-07-19 05:00:00 18.5 0 Calma 8 Oeste 0 -- -- 83
2019-07-19 04:00:00 18.5 5 Noroeste 16 Norte 0 -- -- 86
2019-07-19 03:00:00 19.2 8 Noroeste 17 Noroeste 0 -- -- 73
2019-07-19 02:00:00 19.1 8 Norte 15 Norte 0 -- -- 72
2019-07-19 01:00:00 19 7 Noroeste 13 Oeste 0 -- -- 79
2019-07-19 00:00:00 18.8 5 Noroeste 16 Norte 0 -- -- 79